Time;durP1;ratioP1;P1;durP2;ratioP2;P2;SDS_P1;SDS_P2;PMS_P1;PMS_P2;Temp;Humidity;BMP_temperature;BMP_pressure;BME280_temperature;BME280_humidity;BME280_pressure;Samples;Min_cycle;Max_cycle;Signal;HPM_P1;HPM_P2
2022/01/03 00:00:16;;;;;;;0.00;0.00;;;7.70;99.90;;;;;;5040195;28;20041;-58
2022/01/03 00:02:43;;;;;;;0.00;0.00;;;7.70;99.90;;;;;;5040083;28;20040;-59
2022/01/03 00:05:10;;;;;;;0.00;0.00;;;7.70;99.90;;;;;;5041106;28;20048;-58
2022/01/03 00:07:43;;;;;;;0.00;0.00;;;7.60;99.90;;;;;;5040713;28;20381;-58
2022/01/03 00:10:10;;;;;;;0.00;0.00;;;7.60;99.90;;;;;;5039624;28;20087;-58
2022/01/03 00:12:37;;;;;;;0.00;0.00;;;7.60;99.90;;;;;;5041026;28;20056;-59
2022/01/03 00:15:05;;;;;;;0.00;0.00;;;7.60;99.90;;;;;;5040313;28;20053;-59
2022/01/03 00:17:31;;;;;;;0.00;0.00;;;7.60;99.90;;;;;;5041378;28;20128;-58
2022/01/03 00:19:57;;;;;;;0.00;0.00;;;7.50;99.90;;;;;;5040289;28;20124;-58
2022/01/03 00:22:23;;;;;;;0.00;0.00;;;7.60;99.90;;;;;;5040759;28;20100;-58
2022/01/03 00:25:01;;;;;;;0.00;0.00;;;7.60;99.90;;;;;;5040275;28;20040;-58
2022/01/03 00:27:39;;;;;;;0.00;0.00;;;7.70;99.90;;;;;;5041706;28;20052;-59
2022/01/03 00:30:05;;;;;;;0.00;0.00;;;7.70;99.90;;;;;;5049256;28;20120;-59
2022/01/03 00:32:33;;;;;;;0.00;0.00;;;7.70;99.90;;;;;;5041092;28;20040;-58
2022/01/03 00:35:00;;;;;;;0.00;0.00;;;8.10;99.90;;;;;;5040404;28;20469;-59
2022/01/03 00:37:27;;;;;;;0.00;0.00;;;7.90;99.90;;;;;;5040752;28;20102;-58
2022/01/03 00:39:53;;;;;;;0.00;0.00;;;8.00;99.90;;;;;;5039974;28;20049;-58
2022/01/03 00:42:19;;;;;;;0.00;0.00;;;8.00;99.90;;;;;;5040468;28;20033;-58
2022/01/03 00:44:46;;;;;;;0.57;0.35;;;8.00;99.90;;;;;;5040812;28;20052;-58
2022/01/03 00:47:12;;;;;;;0.00;0.00;;;8.20;99.90;;;;;;5040072;28;20131;-59
2022/01/03 00:49:39;;;;;;;0.00;0.00;;;8.20;99.90;;;;;;5038878;28;20490;-59
2022/01/03 00:52:05;;;;;;;3.90;1.80;;;8.30;99.90;;;;;;5040316;28;20131;-58
2022/01/03 00:54:30;;;;;;;0.00;0.00;;;8.40;99.90;;;;;;5041075;28;20341;-58
2022/01/03 00:57:01;;;;;;;0.00;0.00;;;8.40;99.90;;;;;;5038553;28;20491;-58
2022/01/03 00:59:36;;;;;;;0.00;0.00;;;8.50;99.90;;;;;;5040546;28;20476;-58
2022/01/03 01:02:03;;;;;;;0.00;0.00;;;8.50;99.90;;;;;;5040750;28;20163;-58
2022/01/03 01:04:30;;;;;;;0.00;0.00;;;8.60;99.90;;;;;;5040111;28;20041;-59
2022/01/03 01:06:57;;;;;;;0.00;0.00;;;8.60;99.90;;;;;;5039595;28;20060;-58
2022/01/03 01:09:26;;;;;;;0.00;0.00;;;8.60;99.90;;;;;;5039184;28;20060;-59
2022/01/03 01:11:55;;;;;;;0.00;0.00;;;8.70;99.90;;;;;;5039943;28;20088;-58
2022/01/03 01:14:26;;;;;;;0.00;0.00;;;8.90;99.90;;;;;;5044341;28;20090;-58
2022/01/03 01:16:51;;;;;;;0.00;0.00;;;8.90;99.90;;;;;;5044363;28;20051;-59
2022/01/03 01:19:18;;;;;;;0.00;0.00;;;8.90;99.90;;;;;;5044565;28;20045;-59
2022/01/03 01:21:47;;;;;;;0.00;0.00;;;8.90;99.90;;;;;;5042791;28;20102;-58
2022/01/03 01:24:14;;;;;;;0.00;0.00;;;8.90;99.90;;;;;;5044629;28;20037;-58
2022/01/03 01:29:24;;;;;;;0.00;0.00;;;8.90;99.90;;;;;;5054564;28;20483;-58
2022/01/03 01:31:51;;;;;;;0.00;0.00;;;8.90;99.90;;;;;;5044302;28;20060;-61
2022/01/03 01:34:26;;;;;;;0.00;0.00;;;8.90;99.90;;;;;;5044128;28;20635;-59
2022/01/03 01:36:54;;;;;;;0.00;0.00;;;8.90;99.90;;;;;;5041551;28;20091;-58
2022/01/03 01:39:21;;;;;;;0.00;0.00;;;8.90;99.90;;;;;;5042347;28;20048;-59
2022/01/03 01:41:47;;;;;;;0.10;0.10;;;8.80;99.90;;;;;;5043927;28;20072;-59
2022/01/03 01:44:14;;;;;;;0.00;0.00;;;8.90;99.90;;;;;;5043404;28;20041;-58
2022/01/03 01:46:46;;;;;;;0.00;0.00;;;9.10;99.90;;;;;;5043573;28;20055;-58
2022/01/03 01:49:17;;;;;;;0.00;0.00;;;8.90;99.90;;;;;;5043688;28;20132;-58
2022/01/03 01:51:46;;;;;;;0.00;0.00;;;9.00;99.90;;;;;;5042806;28;20095;-58
2022/01/03 01:54:17;;;;;;;0.00;0.00;;;8.90;99.90;;;;;;5044033;28;20053;-59
2022/01/03 01:57:08;;;;;;;0.00;0.00;;;8.90;99.90;;;;;;5043939;28;20041;-59
2022/01/03 01:59:53;;;;;;;0.00;0.00;;;9.00;99.90;;;;;;5043917;28;20954;-59
2022/01/03 02:02:31;;;;;;;0.00;0.00;;;9.00;99.90;;;;;;5043742;28;20049;-59
2022/01/03 02:05:29;;;;;;;0.00;0.00;;;9.00;99.90;;;;;;5004253;23;20116;-63
2022/01/03 02:08:04;;;;;;;0.20;0.20;;;9.00;99.90;;;;;;4956976;28;20046;-63
2022/01/03 02:10:50;;;;;;;0.00;0.00;;;8.90;99.90;;;;;;4960065;28;20129;-63
2022/01/03 02:13:21;;;;;;;0.00;0.00;;;9.00;99.90;;;;;;4960993;28;20055;-63
2022/01/03 02:15:56;;;;;;;0.00;0.00;;;9.10;99.90;;;;;;4960194;28;20047;-63
2022/01/03 02:18:23;;;;;;;0.15;0.10;;;9.00;99.90;;;;;;4960129;28;20516;-63
2022/01/03 02:20:48;;;;;;;0.00;0.00;;;9.00;99.90;;;;;;4960058;28;20043;-63
2022/01/03 02:23:14;;;;;;;0.00;0.00;;;9.00;99.90;;;;;;4959384;28;20409;-63
2022/01/03 02:25:40;;;;;;;0.00;0.00;;;9.00;99.90;;;;;;4960177;28;20061;-63
2022/01/03 02:28:06;;;;;;;0.30;0.30;;;9.30;99.90;;;;;;4954486;28;20047;-63
2022/01/03 02:30:34;;;;;;;0.00;0.00;;;9.00;99.90;;;;;;4949045;28;20446;-63
2022/01/03 02:33:00;;;;;;;0.30;0.30;;;9.00;99.90;;;;;;4956957;28;20054;-62
2022/01/03 02:35:26;;;;;;;4.95;0.80;;;9.00;99.90;;;;;;4940929;28;20036;-63
2022/01/03 02:37:53;;;;;;;0.00;0.00;;;9.00;99.90;;;;;;4941914;28;20073;-63
2022/01/03 02:40:19;;;;;;;0.00;0.00;;;9.10;99.90;;;;;;4941293;28;20059;-63
2022/01/03 02:42:47;;;;;;;0.00;0.00;;;9.10;99.90;;;;;;4941687;28;20051;-63
2022/01/03 02:45:17;;;;;;;0.00;0.00;;;9.00;99.90;;;;;;4942016;28;20464;-63
2022/01/03 02:47:45;;;;;;;0.00;0.00;;;9.10;99.90;;;;;;4941390;28;20562;-63
2022/01/03 02:50:12;;;;;;;2.30;1.10;;;9.10;99.90;;;;;;4940721;28;20055;-63
2022/01/03 02:52:38;;;;;;;0.00;0.00;;;9.10;99.90;;;;;;4941624;28;20051;-63
2022/01/03 02:55:06;;;;;;;0.10;0.10;;;9.60;99.90;;;;;;4941409;28;20907;-63
2022/01/03 02:57:36;;;;;;;0.00;0.00;;;9.10;99.90;;;;;;4941076;28;20054;-63
2022/01/03 03:00:05;;;;;;;0.00;0.00;;;9.20;99.90;;;;;;4941732;28;20121;-63
2022/01/03 03:02:30;;;;;;;0.00;0.00;;;9.10;99.90;;;;;;4956511;28;20047;-63
2022/01/03 03:04:58;;;;;;;0.00;0.00;;;9.10;99.90;;;;;;4938339;29;20058;-63
2022/01/03 03:07:26;;;;;;;0.00;0.00;;;9.80;99.90;;;;;;4941075;28;20051;-63
2022/01/03 03:09:52;;;;;;;0.00;0.00;;;9.10;99.90;;;;;;4956105;28;20082;-63
2022/01/03 03:12:20;;;;;;;0.75;0.45;;;9.20;99.90;;;;;;4956081;28;20054;-63
2022/01/03 03:14:46;;;;;;;1.27;1.25;;;9.30;99.90;;;;;;4955488;28;20073;-63
2022/01/03 03:17:12;;;;;;;0.00;0.00;;;9.00;99.90;;;;;;4940354;28;20047;-63
2022/01/03 03:19:57;;;;;;;0.00;0.00;;;9.00;99.90;;;;;;4938955;28;20479;-63
2022/01/03 03:22:25;;;;;;;0.00;0.00;;;9.00;99.90;;;;;;4955687;28;20062;-63
2022/01/03 03:24:58;;;;;;;0.00;0.00;;;9.00;99.90;;;;;;4924072;28;20413;-63
2022/01/03 03:27:23;;;;;;;0.00;0.00;;;9.10;99.90;;;;;;4941839;28;20051;-63
2022/01/03 03:29:50;;;;;;;0.00;0.00;;;9.10;99.90;;;;;;4950504;28;20158;-63
2022/01/03 03:32:18;;;;;;;0.00;0.00;;;9.30;99.90;;;;;;4940933;28;20105;-63
2022/01/03 03:34:45;;;;;;;0.10;0.10;;;9.80;99.90;;;;;;4938821;28;20059;-63
2022/01/03 03:37:11;;;;;;;0.22;0.22;;;9.10;99.90;;;;;;4954972;28;20136;-63
2022/01/03 03:39:39;;;;;;;0.25;0.20;;;9.10;99.90;;;;;;4940985;28;20051;-63
2022/01/03 03:42:06;;;;;;;0.00;0.00;;;9.00;99.90;;;;;;4939611;29;20130;-63
2022/01/03 03:44:33;;;;;;;0.00;0.00;;;9.00;99.90;;;;;;4940288;29;20278;-63
2022/01/03 03:46:59;;;;;;;0.08;0.08;;;9.00;99.90;;;;;;4939132;28;20059;-62
2022/01/03 03:49:24;;;;;;;0.00;0.00;;;9.00;99.90;;;;;;4939151;28;20506;-63
2022/01/03 03:51:50;;;;;;;0.20;0.20;;;9.00;99.90;;;;;;4940230;28;20180;-63
2022/01/03 03:54:16;;;;;;;0.00;0.00;;;9.20;99.90;;;;;;4956078;28;20122;-63
2022/01/03 03:56:42;;;;;;;0.00;0.00;;;9.20;99.90;;;;;;4939666;28;20105;-64
2022/01/03 03:59:07;;;;;;;0.00;0.00;;;9.00;99.90;;;;;;4940913;28;20087;-62
2022/01/03 04:01:33;;;;;;;0.05;0.05;;;8.90;99.90;;;;;;4939345;29;20062;-64
2022/01/03 04:03:59;;;;;;;0.00;0.00;;;8.90;99.90;;;;;;4955312;28;20059;-62
2022/01/03 04:06:24;;;;;;;0.38;0.38;;;8.90;99.90;;;;;;4939013;28;20490;-63
2022/01/03 04:08:50;;;;;;;0.00;0.00;;;10.20;99.90;;;;;;4940460;28;20050;-66
2022/01/03 04:11:16;;;;;;;0.10;0.10;;;8.90;99.90;;;;;;4939243;28;20486;-65
2022/01/03 04:13:41;;;;;;;0.00;0.00;;;8.90;99.90;;;;;;4938950;29;20067;-64
2022/01/03 04:16:08;;;;;;;0.88;0.82;;;8.80;99.90;;;;;;4940175;28;20524;-63
2022/01/03 04:18:34;;;;;;;0.00;0.00;;;8.80;99.90;;;;;;4940360;28;20050;-63
2022/01/03 04:20:59;;;;;;;0.00;0.00;;;8.80;99.90;;;;;;4922932;29;20051;-63
2022/01/03 04:23:25;;;;;;;0.00;0.00;;;8.80;99.90;;;;;;4939689;29;20055;-63
2022/01/03 04:25:51;;;;;;;0.00;0.00;;;8.50;99.90;;;;;;4940094;28;20081;-63
2022/01/03 04:28:18;;;;;;;0.00;0.00;;;8.80;99.90;;;;;;4944054;28;20047;-63
2022/01/03 04:30:44;;;;;;;0.00;0.00;;;9.10;99.90;;;;;;4947143;28;20046;-63
2022/01/03 04:33:10;;;;;;;0.00;0.00;;;8.70;99.90;;;;;;4939421;28;20051;-63
2022/01/03 04:35:36;;;;;;;0.00;0.00;;;8.80;99.90;;;;;;4938315;28;20052;-63
2022/01/03 04:38:02;;;;;;;0.00;0.00;;;8.80;99.90;;;;;;4939022;28;20549;-63
2022/01/03 04:40:29;;;;;;;0.10;0.10;;;8.70;99.90;;;;;;4940814;28;20122;-63
2022/01/03 04:42:55;;;;;;;0.52;0.52;;;9.60;99.90;;;;;;4938229;29;20055;-63
2022/01/03 04:45:20;;;;;;;1.38;0.32;;;8.90;99.90;;;;;;4940109;28;20047;-63
2022/01/03 04:47:46;;;;;;;0.00;0.00;;;8.80;99.90;;;;;;4939351;28;20039;-65
2022/01/03 04:50:12;;;;;;;0.00;0.00;;;8.80;99.90;;;;;;4938988;28;20061;-63
2022/01/03 04:52:38;;;;;;;0.10;0.10;;;8.80;99.90;;;;;;4939555;28;20051;-63
2022/01/03 04:55:04;;;;;;;0.00;0.00;;;8.80;99.90;;;;;;4939504;28;20108;-63
2022/01/03 04:57:29;;;;;;;0.00;0.00;;;8.80;99.90;;;;;;4940544;28;20043;-63
2022/01/03 04:59:55;;;;;;;0.00;0.00;;;9.80;99.90;;;;;;4939506;28;20544;-63
2022/01/03 05:02:21;;;;;;;0.00;0.00;;;8.80;99.90;;;;;;4939225;28;20138;-63
2022/01/03 05:04:47;;;;;;;0.00;0.00;;;9.40;99.90;;;;;;4938743;28;20047;-63
2022/01/03 05:07:12;;;;;;;0.00;0.00;;;8.90;99.90;;;;;;4939862;28;20054;-63
2022/01/03 05:09:38;;;;;;;0.00;0.00;;;8.90;99.90;;;;;;4938418;28;20051;-63
2022/01/03 05:12:04;;;;;;;0.00;0.00;;;8.90;99.90;;;;;;4953659;28;20055;-63
2022/01/03 05:14:30;;;;;;;0.00;0.00;;;8.90;99.90;;;;;;4940247;28;20047;-62
2022/01/03 05:16:57;;;;;;;0.00;0.00;;;8.90;99.90;;;;;;4939298;28;20625;-62
2022/01/03 05:19:23;;;;;;;0.00;0.00;;;9.20;99.90;;;;;;4937187;29;20067;-63
2022/01/03 05:21:50;;;;;;;0.08;0.08;;;8.90;99.90;;;;;;4939640;28;20043;-63
2022/01/03 05:24:16;;;;;;;0.00;0.00;;;9.00;99.90;;;;;;4939646;28;20141;-63
2022/01/03 05:26:42;;;;;;;0.05;0.05;;;8.90;99.90;;;;;;4938282;29;20138;-63
2022/01/03 05:29:07;;;;;;;0.03;0.03;;;8.90;99.90;;;;;;4948703;28;20188;-63
2022/01/03 05:31:33;;;;;;;0.00;0.00;;;9.00;99.90;;;;;;4954243;28;20130;-63
2022/01/03 05:34:00;;;;;;;0.00;0.00;;;9.10;99.90;;;;;;4937414;29;20130;-63
2022/01/03 05:36:26;;;;;;;0.00;0.00;;;8.90;99.90;;;;;;4938166;29;20473;-63
2022/01/03 05:38:52;;;;;;;0.00;0.00;;;8.80;99.90;;;;;;4937429;29;20138;-63
2022/01/03 05:41:18;;;;;;;1.67;0.40;;;8.90;99.90;;;;;;4939254;28;20126;-63
2022/01/03 05:43:44;;;;;;;9.10;0.80;;;10.00;99.90;;;;;;4939406;28;20047;-63
2022/01/03 05:46:10;;;;;;;0.00;0.00;;;8.90;99.90;;;;;;4939128;28;20050;-63
2022/01/03 05:48:36;;;;;;;0.10;0.10;;;8.80;99.90;;;;;;4937365;29;20063;-63
2022/01/03 05:51:02;;;;;;;3.63;0.47;;;9.40;99.90;;;;;;4921748;29;20151;-63
2022/01/03 05:53:30;;;;;;;0.00;0.00;;;8.80;99.90;;;;;;4939202;28;20039;-63
2022/01/03 05:55:57;;;;;;;0.00;0.00;;;10.10;99.90;;;;;;4921383;29;20177;-62
2022/01/03 05:58:22;;;;;;;0.15;0.08;;;9.80;99.90;;;;;;4939680;29;20530;-63
2022/01/03 06:00:48;;;;;;;0.00;0.00;;;8.90;99.90;;;;;;4942411;28;20607;-63
2022/01/03 06:03:15;;;;;;;0.65;0.65;;;8.90;99.90;;;;;;4942447;28;20043;-63
2022/01/03 06:08:27;;;;;;;1.55;1.45;;;8.80;99.90;;;;;;4971100;28;20466;-63
2022/01/03 06:10:53;;;;;;;0.00;0.00;;;8.80;99.90;;;;;;4942357;28;20165;-63
2022/01/03 06:13:19;;;;;;;0.00;0.00;;;8.80;99.90;;;;;;4941293;29;20063;-63
2022/01/03 06:15:45;;;;;;;9.55;0.30;;;8.80;99.90;;;;;;4942092;28;20136;-63
2022/01/03 06:18:15;;;;;;;0.00;0.00;;;9.90;99.90;;;;;;4942273;28;20438;-63
2022/01/03 06:20:43;;;;;;;0.08;0.08;;;8.80;99.90;;;;;;4940423;28;20081;-63
2022/01/03 06:23:10;;;;;;;0.00;0.00;;;8.80;99.90;;;;;;4940874;29;20043;-63
2022/01/03 06:25:36;;;;;;;0.00;0.00;;;8.70;99.90;;;;;;4941105;29;20078;-63
2022/01/03 06:28:07;;;;;;;0.00;0.00;;;8.90;99.90;;;;;;4944271;28;20047;-63
2022/01/03 06:30:33;;;;;;;0.00;0.00;;;8.90;99.90;;;;;;4947795;28;20093;-63
2022/01/03 06:32:59;;;;;;;0.25;0.25;;;8.80;99.90;;;;;;4942268;28;20116;-65
2022/01/03 06:35:24;;;;;;;0.00;0.00;;;8.80;99.90;;;;;;4941002;28;20608;-65
2022/01/03 06:37:50;;;;;;;0.00;0.00;;;8.80;99.90;;;;;;4940507;29;20054;-63
2022/01/03 06:40:16;;;;;;;0.00;0.00;;;8.90;99.90;;;;;;4941550;28;20062;-65
2022/01/03 06:42:41;;;;;;;0.00;0.00;;;8.90;99.90;;;;;;4941748;28;20478;-65
2022/01/03 06:45:08;;;;;;;0.00;0.00;;;8.90;99.90;;;;;;4940802;28;20055;-64
2022/01/03 06:47:33;;;;;;;0.40;0.40;;;8.90;99.90;;;;;;4955866;28;20449;-65
2022/01/03 06:49:59;;;;;;;0.75;0.43;;;8.90;99.90;;;;;;4941230;28;20051;-65
2022/01/03 06:52:25;;;;;;;0.00;0.00;;;8.90;99.90;;;;;;4939899;29;20496;-63
2022/01/03 06:54:50;;;;;;;0.00;0.00;;;8.80;99.90;;;;;;4940107;28;20571;-64
2022/01/03 06:57:16;;;;;;;0.00;0.00;;;8.80;99.90;;;;;;4941033;28;20465;-63
2022/01/03 06:59:41;;;;;;;0.00;0.00;;;9.00;99.90;;;;;;4941220;28;20134;-63
2022/01/03 07:02:07;;;;;;;1.65;0.38;;;8.80;99.90;;;;;;4940520;28;20121;-63
2022/01/03 07:04:33;;;;;;;0.00;0.00;;;8.80;99.90;;;;;;4939408;28;20395;-64
2022/01/03 07:06:59;;;;;;;0.00;0.00;;;9.50;99.90;;;;;;4956280;28;20134;-63
2022/01/03 07:09:25;;;;;;;0.00;0.00;;;8.80;99.90;;;;;;4955906;28;20540;-63
2022/01/03 07:11:51;;;;;;;0.20;0.20;;;8.80;99.90;;;;;;4941129;28;20063;-63
2022/01/03 07:19:39;;;;;;;0.98;0.80;;;8.80;99.90;;;;;;4939166;29;20050;-63
2022/01/03 07:22:07;;;;;;;0.00;0.00;;;8.80;99.90;;;;;;4940175;28;20055;-64
2022/01/03 07:24:37;;;;;;;0.00;0.00;;;9.70;99.90;;;;;;4941282;28;20066;-64
2022/01/03 07:27:05;;;;;;;0.00;0.00;;;8.70;99.90;;;;;;4955785;28;20043;-64
2022/01/03 07:29:30;;;;;;;0.00;0.00;;;8.70;99.90;;;;;;4950298;28;20126;-63
2022/01/03 07:31:56;;;;;;;0.00;0.00;;;8.80;99.90;;;;;;4940857;28;20126;-63
2022/01/03 07:34:22;;;;;;;1.15;0.63;;;8.70;99.90;;;;;;4940334;28;20823;-63
2022/01/03 07:36:47;;;;;;;1.23;0.73;;;8.80;99.90;;;;;;4955711;28;20047;-63
2022/01/03 07:39:13;;;;;;;0.00;0.00;;;9.00;99.90;;;;;;4939043;29;20067;-63
2022/01/03 07:41:39;;;;;;;0.00;0.00;;;8.80;99.90;;;;;;4940915;28;20126;-64
2022/01/03 07:44:04;;;;;;;0.00;0.00;;;8.80;99.90;;;;;;4940731;28;20071;-64
2022/01/03 07:46:30;;;;;;;0.00;0.00;;;8.80;99.90;;;;;;4940985;28;20050;-63
2022/01/03 07:48:56;;;;;;;0.00;0.00;;;9.00;99.90;;;;;;4938096;29;20547;-63
2022/01/03 07:51:21;;;;;;;0.00;0.00;;;9.70;99.90;;;;;;4940551;28;20086;-63
2022/01/03 07:53:47;;;;;;;0.00;0.00;;;8.80;99.90;;;;;;4939556;28;20059;-63
2022/01/03 07:56:13;;;;;;;0.10;0.10;;;8.90;99.90;;;;;;4940733;28;20040;-63
2022/01/03 07:58:39;;;;;;;0.00;0.00;;;8.90;99.90;;;;;;4938148;29;20069;-63
2022/01/03 08:01:05;;;;;;;0.00;0.00;;;8.90;99.90;;;;;;4940487;28;20478;-64
2022/01/03 08:03:31;;;;;;;0.00;0.00;;;8.90;99.90;;;;;;4954764;28;20046;-64
2022/01/03 08:05:57;;;;;;;0.00;0.00;;;9.20;99.90;;;;;;4940737;28;20138;-64
2022/01/03 08:08:23;;;;;;;0.00;0.00;;;8.90;99.90;;;;;;4938829;28;20138;-64
2022/01/03 08:10:49;;;;;;;0.00;0.00;;;8.90;99.90;;;;;;4940442;28;20075;-64
2022/01/03 08:13:15;;;;;;;0.20;0.20;;;8.90;99.90;;;;;;4940630;28;20513;-64
2022/01/03 08:15:41;;;;;;;0.00;0.00;;;9.00;99.90;;;;;;4938543;29;20059;-64
2022/01/03 08:18:07;;;;;;;0.00;0.00;;;9.00;99.90;;;;;;4939880;28;20710;-64
2022/01/03 08:20:33;;;;;;;0.00;0.00;;;8.90;99.90;;;;;;4953858;28;20039;-64
2022/01/03 08:22:58;;;;;;;0.00;0.00;;;9.20;99.90;;;;;;4940260;28;20126;-64
2022/01/03 08:25:24;;;;;;;0.05;0.05;;;9.00;99.90;;;;;;4940277;28;20043;-64
2022/01/03 08:27:51;;;;;;;0.73;0.13;;;9.00;99.90;;;;;;4942284;28;20055;-63
2022/01/03 08:30:16;;;;;;;0.00;0.00;;;9.00;99.90;;;;;;4946791;28;20091;-64
2022/01/03 08:32:43;;;;;;;0.03;0.03;;;9.60;99.90;;;;;;4939639;28;20078;-64
2022/01/03 08:35:09;;;;;;;0.10;0.10;;;9.00;99.90;;;;;;4938811;28;20043;-64
2022/01/03 08:37:36;;;;;;;0.00;0.00;;;9.00;99.90;;;;;;4938977;28;20051;-66
2022/01/03 08:40:04;;;;;;;0.00;0.00;;;9.40;99.90;;;;;;4940359;28;20047;-63
2022/01/03 08:42:39;;;;;;;0.00;0.00;;;9.10;99.90;;;;;;4940638;28;20054;-64
2022/01/03 08:45:05;;;;;;;3.10;2.45;;;9.10;99.90;;;;;;4939752;28;20047;-63
2022/01/03 08:47:31;;;;;;;0.00;0.00;;;9.10;99.90;;;;;;4940803;28;20073;-63
2022/01/03 08:49:56;;;;;;;0.00;0.00;;;9.20;99.90;;;;;;4922042;29;20051;-64
2022/01/03 08:52:22;;;;;;;0.00;0.00;;;9.30;99.90;;;;;;4939395;28;20062;-64
2022/01/03 08:54:48;;;;;;;0.00;0.00;;;9.30;99.90;;;;;;4980424;28;20043;-64
2022/01/03 08:57:14;;;;;;;0.22;0.22;;;9.30;99.90;;;;;;5006215;28;20052;-64
2022/01/03 08:59:39;;;;;;;0.00;0.00;;;9.30;99.90;;;;;;5040128;28;20488;-64
2022/01/03 09:02:05;;;;;;;0.00;0.00;;;9.30;99.90;;;;;;5038473;28;20049;-64
2022/01/03 09:04:31;;;;;;;0.00;0.00;;;9.30;99.90;;;;;;5039464;28;20061;-64
2022/01/03 09:06:58;;;;;;;0.00;0.00;;;10.50;99.90;;;;;;5040431;28;20056;-64
2022/01/03 09:09:26;;;;;;;0.00;0.00;;;10.70;99.90;;;;;;5038944;28;20045;-64
2022/01/03 09:11:51;;;;;;;0.00;0.00;;;9.30;99.90;;;;;;5039118;28;20052;-64
2022/01/03 09:14:17;;;;;;;0.00;0.00;;;9.30;99.90;;;;;;5040202;28;20053;-63
2022/01/03 09:16:43;;;;;;;0.25;0.20;;;9.60;99.90;;;;;;5038559;28;20554;-64
2022/01/03 09:19:08;;;;;;;0.00;0.00;;;9.30;99.90;;;;;;5039594;28;20041;-64
2022/01/03 09:21:34;;;;;;;0.00;0.00;;;9.40;99.90;;;;;;5021875;28;20162;-66
2022/01/03 09:24:26;;;;;;;0.00;0.00;;;9.30;99.90;;;;;;5040331;28;20479;-65
2022/01/03 09:29:36;;;;;;;0.00;0.00;;;9.40;99.90;;;;;;4946407;28;20047;-64
2022/01/03 09:32:03;;;;;;;0.10;0.10;;;9.40;99.90;;;;;;4959020;28;20046;-64
2022/01/03 09:34:29;;;;;;;0.00;0.00;;;9.40;99.90;;;;;;4959589;28;20047;-64
2022/01/03 09:36:54;;;;;;;0.10;0.10;;;9.40;99.90;;;;;;4960882;28;20050;-65
2022/01/03 09:39:20;;;;;;;0.00;0.00;;;9.40;99.90;;;;;;4960328;28;20050;-63
2022/01/03 09:42:04;;;;;;;0.00;0.00;;;9.40;99.90;;;;;;4961892;28;20049;-66
2022/01/03 09:44:33;;;;;;;0.08;0.08;;;9.40;99.90;;;;;;4961067;28;20053;-64
2022/01/03 09:47:01;;;;;;;0.00;0.00;;;9.90;99.90;;;;;;4962189;28;20046;-64
2022/01/03 09:49:33;;;;;;;1.13;1.10;;;9.40;99.90;;;;;;4960265;28;20047;-65
2022/01/03 09:52:00;;;;;;;0.00;0.00;;;9.50;99.90;;;;;;4960598;28;20055;-64
2022/01/03 09:54:26;;;;;;;0.00;0.00;;;9.50;99.90;;;;;;4960403;28;20053;-65
2022/01/03 09:56:54;;;;;;;0.00;0.00;;;9.50;99.90;;;;;;4960248;28;20054;-65
2022/01/03 09:59:19;;;;;;;0.00;0.00;;;9.60;99.90;;;;;;4960381;28;20196;-65
2022/01/03 10:01:45;;;;;;;0.00;0.00;;;9.50;99.90;;;;;;4960597;28;20130;-65
2022/01/03 10:04:14;;;;;;;0.00;0.00;;;9.60;99.90;;;;;;4960384;28;20154;-65
2022/01/03 10:06:41;;;;;;;0.00;0.00;;;9.60;99.90;;;;;;4960928;28;20055;-65
2022/01/03 10:09:07;;;;;;;0.20;0.20;;;9.60;99.90;;;;;;4961613;28;20406;-65
2022/01/03 10:11:33;;;;;;;0.00;0.00;;;9.60;99.90;;;;;;4961713;28;20042;-65
2022/01/03 10:13:59;;;;;;;0.00;0.00;;;9.60;99.90;;;;;;4961943;28;20516;-65
2022/01/03 10:16:28;;;;;;;0.00;0.00;;;9.90;99.90;;;;;;4960686;28;20310;-64
2022/01/03 10:18:53;;;;;;;0.00;0.00;;;9.90;99.90;;;;;;4960267;28;20151;-65
2022/01/03 10:21:38;;;;;;;0.00;0.00;;;10.60;99.90;;;;;;4960344;28;20113;-65
2022/01/03 10:24:05;;;;;;;0.00;0.00;;;9.90;99.90;;;;;;4959210;28;20051;-65
2022/01/03 10:26:31;;;;;;;0.00;0.00;;;9.90;99.90;;;;;;4960653;28;20535;-65
2022/01/03 10:29:15;;;;;;;0.00;0.00;;;10.50;99.90;;;;;;4953641;28;20053;-64
2022/01/03 10:31:43;;;;;;;0.00;0.00;;;10.40;99.90;;;;;;4940131;28;20050;-65
2022/01/03 10:34:11;;;;;;;0.00;0.00;;;10.70;99.90;;;;;;4941133;28;20058;-65
2022/01/03 10:36:38;;;;;;;0.00;0.00;;;10.60;99.90;;;;;;4940886;29;20481;-65
2022/01/03 10:39:25;;;;;;;5.40;0.85;;;10.30;99.90;;;;;;4940703;28;20038;-66
2022/01/03 10:41:53;;;;;;;0.00;0.00;;;10.40;99.90;;;;;;4941284;28;20044;-65
2022/01/03 10:44:41;;;;;;;0.30;0.30;;;10.30;99.90;;;;;;4940009;28;20062;-65
2022/01/03 10:47:08;;;;;;;0.25;0.25;;;10.60;99.90;;;;;;4956341;28;20097;-65
2022/01/03 10:49:36;;;;;;;0.00;0.00;;;10.70;99.90;;;;;;4940176;29;20486;-66
2022/01/03 10:52:20;;;;;;;0.00;0.00;;;10.70;99.90;;;;;;4940017;28;20553;-65
2022/01/03 10:55:09;;;;;;;0.50;0.50;;;10.60;99.90;;;;;;4941066;28;20046;-65
2022/01/03 10:57:48;;;;;;;0.00;0.00;;;10.40;99.90;;;;;;4940179;29;20052;-65
2022/01/03 11:00:23;;;;;;;0.00;0.00;;;10.00;99.90;;;;;;4942297;28;20058;-65
2022/01/03 11:03:16;;;;;;;0.00;0.00;;;10.10;99.90;;;;;;4941366;28;20080;-65
2022/01/03 11:05:47;;;;;;;0.00;0.00;;;10.10;99.90;;;;;;4939576;29;20052;-65
2022/01/03 11:10:58;;;;;;;0.00;0.00;;;9.90;99.90;;;;;;4941483;28;20062;-64
2022/01/03 11:13:24;;;;;;;0.00;0.00;;;10.20;99.90;;;;;;4940553;28;20051;-66
2022/01/03 11:15:57;;;;;;;0.00;0.00;;;9.90;99.90;;;;;;4940996;28;20475;-65
2022/01/03 11:18:30;;;;;;;0.00;0.00;;;9.90;99.90;;;;;;4940396;28;20051;-65
2022/01/03 11:21:13;;;;;;;0.22;0.17;;;9.90;99.90;;;;;;4940011;28;20090;-65
2022/01/03 11:23:43;;;;;;;0.00;0.00;;;9.90;99.90;;;;;;4941248;28;20390;-65
2022/01/03 11:26:16;;;;;;;0.00;0.00;;;9.80;99.90;;;;;;4939951;28;20056;-65
2022/01/03 11:28:43;;;;;;;0.00;0.00;;;9.90;99.90;;;;;;4947843;28;20475;-66
2022/01/03 11:31:11;;;;;;;0.52;0.52;;;9.90;99.90;;;;;;4943430;28;20055;-65
2022/01/03 11:33:38;;;;;;;0.03;0.03;;;9.90;99.90;;;;;;4939956;28;20047;-65
2022/01/03 11:36:04;;;;;;;0.22;0.22;;;10.10;99.90;;;;;;4940354;28;20398;-65
2022/01/03 11:38:33;;;;;;;0.00;0.00;;;9.90;99.90;;;;;;4939793;29;20511;-65
2022/01/03 11:41:05;;;;;;;0.00;0.00;;;9.90;99.90;;;;;;4955624;28;20112;-65
2022/01/03 11:43:34;;;;;;;0.90;0.90;;;9.90;99.90;;;;;;4940478;28;20079;-65
2022/01/03 11:46:00;;;;;;;0.00;0.00;;;9.90;99.90;;;;;;4941023;28;20463;-65
2022/01/03 11:48:28;;;;;;;2.63;2.40;;;9.90;99.90;;;;;;4954612;28;20039;-65
2022/01/03 11:50:57;;;;;;;0.47;0.47;;;10.40;99.90;;;;;;4940429;28;20052;-65
2022/01/03 11:53:23;;;;;;;24.08;1.05;;;10.10;99.90;;;;;;4940590;28;20372;-65
2022/01/03 11:55:57;;;;;;;0.00;0.00;;;9.20;99.90;;;;;;4939893;28;20051;-65
2022/01/03 11:58:45;;;;;;;0.10;0.10;;;10.80;99.90;;;;;;4940768;28;20539;-65
2022/01/03 12:03:58;;;;;;;0.10;0.10;;;10.00;99.90;;;;;;4939212;28;20063;-65
2022/01/03 12:06:33;;;;;;;0.00;0.00;;;10.00;99.90;;;;;;4940323;28;20072;-66
2022/01/03 12:09:11;;;;;;;0.10;0.10;;;10.40;99.90;;;;;;4939320;28;20061;-65
2022/01/03 12:11:45;;;;;;;0.17;0.08;;;10.20;99.90;;;;;;4940090;28;20047;-64
2022/01/03 12:14:14;;;;;;;0.00;0.00;;;10.20;99.90;;;;;;4940682;28;20130;-65
2022/01/03 12:16:43;;;;;;;0.00;0.00;;;10.20;99.90;;;;;;4940653;28;20090;-65
2022/01/03 12:19:12;;;;;;;0.00;0.00;;;10.10;99.90;;;;;;4939087;28;20146;-64
2022/01/03 12:21:50;;;;;;;0.00;0.00;;;10.80;99.90;;;;;;4940129;28;20075;-65
2022/01/03 12:24:36;;;;;;;0.00;0.00;;;10.10;99.90;;;;;;4939777;28;20055;-64
2022/01/03 12:29:58;;;;;;;;;;;10.30;99.90;;;;;;4947372;28;20055;-64
2022/01/03 12:32:37;;;;;;;0.00;0.00;;;10.10;99.90;;;;;;4958029;28;19922;-65
2022/01/03 12:35:19;;;;;;;0.00;0.00;;;10.10;99.90;;;;;;4940672;28;20461;-67
2022/01/03 12:37:54;;;;;;;0.00;0.00;;;10.20;99.90;;;;;;4957870;28;20058;-65
2022/01/03 12:40:21;;;;;;;0.00;0.00;;;10.30;99.90;;;;;;4958249;28;20405;-65
2022/01/03 12:42:51;;;;;;;0.00;0.00;;;10.30;99.90;;;;;;4956875;28;20059;-65
2022/01/03 12:45:28;;;;;;;0.00;0.00;;;10.40;99.90;;;;;;4941439;28;20486;-64
2022/01/03 12:47:54;;;;;;;0.10;0.10;;;10.30;99.90;;;;;;4957131;28;20108;-64
2022/01/03 12:50:29;;;;;;;0.00;0.00;;;10.30;99.90;;;;;;4958554;28;20308;-63
2022/01/03 12:52:58;;;;;;;0.00;0.00;;;10.50;99.90;;;;;;4958470;28;20054;-63
2022/01/03 12:55:38;;;;;;;0.08;0.08;;;10.30;99.90;;;;;;4958607;28;20666;-62
2022/01/03 12:58:16;;;;;;;0.00;0.00;;;10.40;99.90;;;;;;4957666;28;20116;-63
2022/01/03 13:00:47;;;;;;;0.00;0.00;;;10.30;99.90;;;;;;4958938;28;20394;-63
2022/01/03 13:03:26;;;;;;;0.00;0.00;;;10.30;99.90;;;;;;4928446;28;20058;-62
2022/01/03 13:06:21;;;;;;;16.92;0.75;;;10.80;99.90;;;;;;4939113;28;20066;-62
2022/01/03 13:08:47;;;;;;;0.00;0.00;;;10.40;99.90;;;;;;4952851;28;20430;-62
2022/01/03 13:11:15;;;;;;;0.00;0.00;;;10.40;99.90;;;;;;4961994;28;20054;-63
2022/01/03 13:13:43;;;;;;;2.28;2.17;;;11.50;99.90;;;;;;4961533;28;20051;-63
2022/01/03 13:16:30;;;;;;;0.00;0.00;;;10.50;99.90;;;;;;4961485;28;20078;-62
2022/01/03 13:19:02;;;;;;;0.00;0.00;;;10.40;99.90;;;;;;4961162;28;20055;-63
2022/01/03 13:21:34;;;;;;;0.00;0.00;;;10.30;99.90;;;;;;4943818;28;20615;-63
2022/01/03 13:24:08;;;;;;;0.20;0.20;;;10.30;99.90;;;;;;4941342;29;20098;-63